createdAt,value
2018-03-19T00:00:58.755Z,-4.00
2018-03-19T00:03:26.323Z,-3.90
2018-03-19T00:05:53.786Z,-4.30
2018-03-19T00:08:21.274Z,-4.00
2018-03-19T00:10:49.520Z,-3.90
2018-03-19T00:13:17.007Z,-4.10
2018-03-19T00:15:45.238Z,-4.30
2018-03-19T00:18:12.715Z,-4.30
2018-03-19T00:20:40.171Z,-4.00
2018-03-19T00:23:07.650Z,-4.30
2018-03-19T00:25:35.909Z,-4.30
2018-03-19T00:28:03.389Z,-4.00
2018-03-19T00:30:31.627Z,-4.10
2018-03-19T00:32:59.094Z,-4.20
2018-03-19T00:35:26.558Z,-4.20
2018-03-19T00:37:54.039Z,-4.20
2018-03-19T00:40:22.270Z,-4.20
2018-03-19T00:42:49.747Z,-4.10
2018-03-19T00:45:17.235Z,-4.40
2018-03-19T00:47:44.739Z,-4.30
2018-03-19T00:50:12.207Z,-4.40
2018-03-19T00:52:39.675Z,-3.90
2018-03-19T00:55:07.160Z,-4.10
2018-03-19T00:57:35.391Z,-4.20
2018-03-19T01:00:02.876Z,-3.90
2018-03-19T01:02:30.347Z,-4.10
2018-03-19T01:04:58.611Z,-4.00
2018-03-19T01:07:26.076Z,-4.20
2018-03-19T01:09:54.329Z,-4.30
2018-03-19T01:12:21.793Z,-4.40
2018-03-19T01:14:49.271Z,-4.00
2018-03-19T01:17:17.508Z,-4.10
2018-03-19T01:19:44.984Z,-4.30
2018-03-19T01:22:12.460Z,-4.40
2018-03-19T01:24:40.703Z,-4.50
2018-03-19T01:27:08.175Z,-4.30
2018-03-19T01:29:35.650Z,-4.30
2018-03-19T01:32:03.879Z,-4.50
2018-03-19T01:34:31.354Z,-4.80
2018-03-19T01:36:58.831Z,-4.80
2018-03-19T01:39:26.319Z,-4.70
2018-03-19T01:41:53.792Z,-4.70
2018-03-19T01:44:21.264Z,-4.50
2018-03-19T01:46:48.718Z,-4.80
2018-03-19T01:49:16.217Z,-4.80
2018-03-19T01:51:43.682Z,-4.80
2018-03-19T01:54:11.168Z,-4.90
2018-03-19T01:56:38.637Z,-4.80
2018-03-19T01:59:06.121Z,-4.80
2018-03-19T02:01:33.590Z,-4.70
2018-03-19T02:04:01.080Z,-4.50
2018-03-19T02:06:29.324Z,-4.90
2018-03-19T02:08:56.799Z,-4.70
2018-03-19T02:11:24.270Z,-4.90
2018-03-19T02:13:52.520Z,-4.90
2018-03-19T02:16:19.988Z,-5.10
2018-03-19T02:18:47.472Z,-4.80
2018-03-19T02:21:15.703Z,-5.00
2018-03-19T02:23:43.183Z,-5.00
2018-03-19T02:26:10.653Z,-4.90
2018-03-19T02:28:38.908Z,-5.00
2018-03-19T02:31:06.372Z,-5.00
2018-03-19T02:33:33.845Z,-4.90
2018-03-19T02:36:02.080Z,-5.10
2018-03-19T02:38:29.576Z,-5.00
2018-03-19T02:40:57.041Z,-5.10
2018-03-19T02:43:25.286Z,-5.20
2018-03-19T02:45:52.762Z,-5.00
2018-03-19T02:48:20.244Z,-5.00
2018-03-19T02:50:48.488Z,-5.10
2018-03-19T02:53:15.967Z,-5.10
2018-03-19T02:55:44.223Z,-5.30
2018-03-19T02:58:11.708Z,-5.40
2018-03-19T03:00:39.951Z,-5.20
2018-03-19T03:03:07.414Z,-5.20
2018-03-19T03:05:34.895Z,-5.20
2018-03-19T03:08:03.132Z,-5.20
2018-03-19T03:10:30.607Z,-5.10
2018-03-19T03:12:58.077Z,-5.30
2018-03-19T03:15:25.551Z,-5.10
2018-03-19T03:17:53.776Z,-5.20
2018-03-19T03:20:22.036Z,-5.20
2018-03-19T03:22:49.503Z,-5.20
2018-03-19T03:25:16.989Z,-5.00
2018-03-19T03:27:44.461Z,-5.10
2018-03-19T03:30:11.926Z,-5.30
2018-03-19T03:32:40.162Z,-5.40
2018-03-19T03:35:07.644Z,-5.20
2018-03-19T03:37:35.122Z,-5.20
2018-03-19T03:40:03.366Z,-5.20
2018-03-19T03:42:30.836Z,-5.20
2018-03-19T03:44:58.316Z,-5.30
2018-03-19T03:47:26.576Z,-5.20
2018-03-19T03:49:54.051Z,-5.20
2018-03-19T03:52:22.286Z,-5.20
2018-03-19T03:54:49.771Z,-5.20
2018-03-19T03:57:18.053Z,-5.20
2018-03-19T03:59:46.296Z,-5.40
2018-03-19T04:02:13.768Z,-5.60
2018-03-19T04:04:41.248Z,-5.20
2018-03-19T04:07:09.484Z,-5.20
2018-03-19T04:09:36.959Z,-5.30
2018-03-19T04:12:04.435Z,-5.40
2018-03-19T04:14:32.682Z,-5.40
2018-03-19T04:17:00.155Z,-5.50
2018-03-19T04:19:27.631Z,-5.20
2018-03-19T04:21:55.879Z,-5.40
2018-03-19T04:24:23.356Z,-5.70
2018-03-19T04:26:51.603Z,-5.60
2018-03-19T04:29:19.087Z,-5.80
2018-03-19T04:31:47.337Z,-5.60
2018-03-19T04:34:14.823Z,-5.70
2018-03-19T04:36:42.295Z,-5.60
2018-03-19T04:39:10.534Z,-5.60
2018-03-19T04:41:38.008Z,-5.70
2018-03-19T04:44:05.478Z,-5.70
2018-03-19T04:46:33.715Z,-5.60
2018-03-19T04:49:01.190Z,-5.60
2018-03-19T04:51:28.667Z,-5.60
2018-03-19T04:53:56.911Z,-5.60
2018-03-19T04:56:24.395Z,-5.60
2018-03-19T04:58:52.636Z,-6.00
2018-03-19T05:01:20.119Z,-6.00
2018-03-19T05:03:47.590Z,-5.60
2018-03-19T05:06:15.832Z,-6.00
2018-03-19T05:08:43.294Z,-5.70
2018-03-19T05:11:10.789Z,-5.80
2018-03-19T05:13:39.023Z,-6.20
2018-03-19T05:16:06.504Z,-6.30
2018-03-19T05:18:33.977Z,-6.00
2018-03-19T05:21:02.210Z,-6.00
2018-03-19T05:23:29.685Z,-6.10
2018-03-19T05:25:57.171Z,-6.00
2018-03-19T05:28:25.417Z,-6.50
2018-03-19T05:30:52.904Z,-6.20
2018-03-19T05:33:21.140Z,-6.30
2018-03-19T05:35:48.617Z,-6.20
2018-03-19T05:38:16.086Z,-6.40
2018-03-19T05:40:43.558Z,-6.10
2018-03-19T05:43:11.800Z,-6.20
2018-03-19T05:45:39.274Z,-6.50
2018-03-19T05:48:06.857Z,-6.20
2018-03-19T05:50:34.364Z,-6.20
2018-03-19T05:53:01.840Z,-6.70
2018-03-19T05:55:29.332Z,-6.50
2018-03-19T05:57:57.560Z,-6.70
2018-03-19T06:00:25.815Z,-6.70
2018-03-19T06:02:53.296Z,-6.90
2018-03-19T06:05:20.773Z,-6.80
2018-03-19T06:07:48.275Z,-6.50
2018-03-19T06:10:15.752Z,-6.70
2018-03-19T06:12:43.242Z,-6.70
2018-03-19T06:15:10.725Z,-6.70
2018-03-19T06:17:38.961Z,-6.60
2018-03-19T06:20:06.450Z,-6.60
2018-03-19T06:22:34.687Z,-6.60
2018-03-19T06:25:02.175Z,-6.70
2018-03-19T06:27:29.653Z,-6.50
2018-03-19T06:29:57.906Z,-6.30
2018-03-19T06:32:25.383Z,-6.70
2018-03-19T06:34:53.627Z,-6.50
2018-03-19T06:37:21.136Z,-6.40
2018-03-19T06:39:48.614Z,-6.10
2018-03-19T06:42:16.083Z,-6.40
2018-03-19T06:44:43.563Z,-6.20
2018-03-19T06:47:11.068Z,-6.30
2018-03-19T06:49:39.278Z,-5.80
2018-03-19T06:52:06.755Z,-5.90
2018-03-19T06:54:34.302Z,-5.60
2018-03-19T06:57:01.788Z,-5.80
2018-03-19T06:59:30.345Z,-5.30
2018-03-19T07:01:57.827Z,-5.40
2018-03-19T07:04:25.294Z,-5.50
2018-03-19T07:06:53.538Z,-5.10
2018-03-19T07:09:21.019Z,-5.30
2018-03-19T07:11:49.271Z,-5.10
2018-03-19T07:14:16.739Z,-5.10
2018-03-19T07:16:44.235Z,-5.10
2018-03-19T07:19:11.690Z,-5.00
2018-03-19T07:21:39.165Z,-4.70
2018-03-19T07:24:06.635Z,-4.60
2018-03-19T07:26:34.110Z,-4.60
2018-03-19T07:29:01.583Z,-4.80
2018-03-19T07:31:29.078Z,-4.80
2018-03-19T07:33:56.545Z,-4.60
2018-03-19T07:36:24.017Z,-4.40
2018-03-19T07:38:51.493Z,-4.40
2018-03-19T07:41:18.970Z,-4.40
2018-03-19T07:43:46.452Z,-3.80
2018-03-19T07:46:14.694Z,-3.80
2018-03-19T07:48:42.156Z,-3.80
2018-03-19T07:51:10.759Z,-3.30
2018-03-19T07:53:38.235Z,-3.50
2018-03-19T07:56:06.479Z,-3.10
2018-03-19T07:58:33.959Z,-3.10
2018-03-19T08:01:02.222Z,-2.60
2018-03-19T08:03:29.698Z,-3.10
2018-03-19T08:05:57.981Z,-2.40
2018-03-19T08:08:26.223Z,-2.70
2018-03-19T08:10:53.723Z,-2.80
2018-03-19T08:13:21.208Z,-2.60
2018-03-19T08:15:48.680Z,-2.50
2018-03-19T08:18:16.159Z,-2.70
2018-03-19T08:20:43.651Z,-2.50
2018-03-19T08:23:11.748Z,-2.50
2018-03-19T08:25:39.337Z,-2.50
2018-03-19T08:28:06.698Z,-2.50
2018-03-19T08:30:34.182Z,-2.20
2018-03-19T08:33:01.668Z,-2.40
2018-03-19T08:35:29.152Z,-2.50
2018-03-19T08:37:56.648Z,-2.80
2018-03-19T08:40:24.114Z,-2.80
2018-03-19T08:42:52.361Z,-2.80
2018-03-19T08:45:19.841Z,-2.80
2018-03-19T08:47:47.313Z,-3.10
2018-03-19T08:50:15.571Z,-2.90
2018-03-19T08:52:43.039Z,-2.80
2018-03-19T08:55:11.306Z,-2.80
2018-03-19T08:57:38.781Z,-2.70
2018-03-19T09:00:07.017Z,-2.90
2018-03-19T09:02:34.499Z,-2.70
2018-03-19T09:05:01.971Z,-2.80
2018-03-19T09:07:30.218Z,-2.40
2018-03-19T09:09:57.690Z,-2.60
2018-03-19T09:12:25.179Z,-2.50
2018-03-19T09:14:52.652Z,-2.30
2018-03-19T09:17:20.139Z,-2.60
2018-03-19T09:19:47.653Z,-2.50
2018-03-19T09:22:15.893Z,-2.50
2018-03-19T09:24:43.363Z,-2.50
2018-03-19T09:27:11.616Z,-1.70
2018-03-19T09:29:39.085Z,-1.90
2018-03-19T09:32:06.567Z,-1.70
2018-03-19T09:34:34.813Z,-1.50
2018-03-19T09:37:02.293Z,-1.50
2018-03-19T09:39:30.552Z,-1.50
2018-03-19T09:41:58.047Z,-1.40
2018-03-19T09:44:25.528Z,-1.60
2018-03-19T09:46:53.018Z,-1.30
2018-03-19T09:49:20.512Z,-1.10
2018-03-19T09:51:48.759Z,-0.90
2018-03-19T09:54:16.235Z,-1.00
2018-03-19T09:56:44.488Z,-0.40
2018-03-19T09:59:11.977Z,-0.10
2018-03-19T10:01:40.219Z,-0.40
2018-03-19T10:04:07.707Z,-0.30
2018-03-19T10:06:35.968Z,-0.40
2018-03-19T10:09:03.448Z,-0.40
2018-03-19T10:11:31.705Z,-0.50
2018-03-19T10:13:59.181Z,-0.20
2018-03-19T10:16:27.427Z,-0.20
2018-03-19T10:18:54.900Z,-0.20
2018-03-19T10:21:22.379Z,-0.30
2018-03-19T10:23:50.611Z,0.40
2018-03-19T10:26:18.103Z,0.50
2018-03-19T10:28:45.566Z,0.70
2018-03-19T10:31:13.819Z,1.10
2018-03-19T10:33:41.286Z,0.80
2018-03-19T10:36:08.763Z,0.90
2018-03-19T10:38:37.016Z,0.70
2018-03-19T10:41:05.248Z,0.50
2018-03-19T10:43:32.719Z,0.80
2018-03-19T10:46:00.204Z,0.50
2018-03-19T10:48:27.672Z,0.80
2018-03-19T10:50:55.144Z,0.80
2018-03-19T10:53:23.379Z,0.70
2018-03-19T10:55:50.853Z,0.60
2018-03-19T10:58:18.323Z,1.10
2018-03-19T11:00:46.563Z,0.80
2018-03-19T11:03:19.734Z,1.00
2018-03-19T11:05:50.131Z,1.30
2018-03-19T11:08:23.987Z,1.50
2018-03-19T11:10:51.517Z,1.20
2018-03-19T11:13:18.939Z,1.30
2018-03-19T11:15:46.412Z,1.20
2018-03-19T11:18:14.653Z,1.10
2018-03-19T11:20:42.124Z,1.10
2018-03-19T11:23:09.611Z,1.30
2018-03-19T11:25:37.839Z,1.40
2018-03-19T11:28:05.319Z,1.10
2018-03-19T11:30:32.792Z,1.30
2018-03-19T11:33:01.037Z,1.40
2018-03-19T11:35:28.494Z,1.30
2018-03-19T11:37:55.965Z,1.30
2018-03-19T11:40:23.428Z,1.40
2018-03-19T11:42:50.913Z,1.50
2018-03-19T11:45:19.140Z,1.50
2018-03-19T11:47:46.611Z,1.50
2018-03-19T11:50:14.078Z,1.80
2018-03-19T11:52:41.555Z,1.90
2018-03-19T11:55:09.788Z,1.40
2018-03-19T11:57:37.252Z,1.60
2018-03-19T12:00:04.720Z,2.00
2018-03-19T12:02:32.196Z,1.90
2018-03-19T12:05:00.428Z,1.90
2018-03-19T12:07:27.903Z,2.30
2018-03-19T12:09:55.361Z,2.00
2018-03-19T12:12:22.948Z,2.30
2018-03-19T12:14:50.311Z,2.20
2018-03-19T12:17:18.543Z,2.20
2018-03-19T12:19:46.774Z,2.20
2018-03-19T12:22:14.249Z,2.10
2018-03-19T12:24:41.703Z,1.70
2018-03-19T12:27:09.177Z,1.50
2018-03-19T12:29:36.638Z,1.90
2018-03-19T12:32:04.107Z,2.00
2018-03-19T12:34:31.570Z,2.20
2018-03-19T12:36:59.048Z,2.20
2018-03-19T12:39:26.508Z,1.60
2018-03-19T12:41:53.970Z,2.00
2018-03-19T12:44:22.199Z,1.80
2018-03-19T12:46:49.659Z,1.60
2018-03-19T12:49:17.113Z,1.50
2018-03-19T12:51:44.583Z,1.60
2018-03-19T12:54:12.046Z,1.90
2018-03-19T12:56:39.517Z,2.00
2018-03-19T12:59:06.972Z,2.00
2018-03-19T13:01:34.449Z,2.00
2018-03-19T13:04:01.906Z,1.90
2018-03-19T13:06:29.357Z,2.10
2018-03-19T13:08:56.826Z,2.10
2018-03-19T13:11:25.052Z,2.30
2018-03-19T13:13:52.518Z,1.90
2018-03-19T13:16:19.977Z,2.20
2018-03-19T13:18:47.447Z,1.90
2018-03-19T13:21:14.906Z,2.00
2018-03-19T13:23:42.370Z,2.10
2018-03-19T13:26:09.830Z,1.60
2018-03-19T13:28:37.315Z,1.80
2018-03-19T13:31:05.543Z,2.20
2018-03-19T13:33:33.022Z,1.80
2018-03-19T13:36:00.486Z,2.10
2018-03-19T13:38:28.018Z,2.50
2018-03-19T13:40:56.185Z,2.10
2018-03-19T13:43:23.650Z,2.10
2018-03-19T13:45:51.112Z,2.20
2018-03-19T13:48:18.594Z,2.20
2018-03-19T13:50:46.066Z,2.50
2018-03-19T13:53:13.534Z,2.10
2018-03-19T13:55:41.780Z,2.10
2018-03-19T13:58:09.275Z,2.20
2018-03-19T14:00:37.510Z,2.20
2018-03-19T14:03:05.066Z,2.30
2018-03-19T14:05:32.536Z,2.20
2018-03-19T14:08:00.012Z,1.90
2018-03-19T14:10:28.249Z,2.40
2018-03-19T14:12:55.727Z,2.40
2018-03-19T14:15:23.276Z,2.50
2018-03-19T14:17:50.766Z,2.60
2018-03-19T14:20:18.990Z,2.70
2018-03-19T14:22:46.472Z,2.70
2018-03-19T14:25:14.705Z,2.40
2018-03-19T14:27:42.222Z,2.70
2018-03-19T14:30:09.633Z,2.70
2018-03-19T14:32:37.103Z,2.60
2018-03-19T14:35:04.563Z,2.80
2018-03-19T14:37:32.037Z,2.60
2018-03-19T14:39:59.502Z,2.70
2018-03-19T14:42:26.980Z,2.90
2018-03-19T14:44:55.206Z,2.40
2018-03-19T14:47:22.672Z,2.50
2018-03-19T14:49:50.139Z,2.40
2018-03-19T14:52:17.617Z,2.50
2018-03-19T14:54:45.890Z,2.50
2018-03-19T14:57:13.362Z,2.90
2018-03-19T14:59:40.831Z,3.20
2018-03-19T15:02:09.057Z,3.30
2018-03-19T15:04:36.569Z,3.20
2018-03-19T15:07:03.989Z,3.30
2018-03-19T15:09:31.458Z,2.90
2018-03-19T15:11:58.925Z,3.30
2018-03-19T15:14:26.393Z,3.30
2018-03-19T15:16:54.610Z,3.50
2018-03-19T15:19:22.077Z,3.10
2018-03-19T15:21:49.538Z,3.30
2018-03-19T15:24:17.006Z,3.00
2018-03-19T15:26:45.686Z,3.00
2018-03-19T15:29:13.145Z,3.60
2018-03-19T15:31:40.606Z,3.60
2018-03-19T15:34:08.073Z,3.70
2018-03-19T15:36:35.522Z,3.80
2018-03-19T15:39:02.994Z,3.90
2018-03-19T15:41:30.482Z,4.20
2018-03-19T15:43:58.749Z,4.50
2018-03-19T15:46:26.174Z,4.30
2018-03-19T15:48:53.644Z,4.80
2018-03-19T15:51:21.102Z,4.80
2018-03-19T15:53:48.570Z,4.70
2018-03-19T15:56:16.045Z,4.80
2018-03-19T15:58:44.296Z,5.00
2018-03-19T16:01:11.735Z,5.20
2018-03-19T16:03:39.198Z,4.80
2018-03-19T16:06:06.655Z,4.50
2018-03-19T16:08:34.113Z,4.40
2018-03-19T16:11:01.570Z,4.00
2018-03-19T16:13:29.049Z,3.60
2018-03-19T16:15:56.520Z,3.40
2018-03-19T16:18:24.742Z,3.10
2018-03-19T16:20:52.210Z,2.80
2018-03-19T16:23:19.754Z,3.00
2018-03-19T16:25:47.214Z,3.10
2018-03-19T16:28:14.689Z,2.60
2018-03-19T16:30:42.144Z,2.40
2018-03-19T16:33:09.620Z,2.30
2018-03-19T16:35:37.085Z,2.60
2018-03-19T16:38:04.556Z,2.70
2018-03-19T16:40:32.918Z,2.50
2018-03-19T16:43:00.393Z,2.60
2018-03-19T16:45:27.853Z,2.60
2018-03-19T16:47:55.314Z,2.60
2018-03-19T16:50:23.547Z,2.70
2018-03-19T16:52:51.691Z,2.40
2018-03-19T16:55:19.145Z,2.20
2018-03-19T16:57:46.605Z,2.30
2018-03-19T17:00:14.106Z,2.20
2018-03-19T17:02:41.575Z,2.20
2018-03-19T17:05:09.037Z,2.00
2018-03-19T17:07:36.496Z,2.00
2018-03-19T17:10:03.963Z,2.00
2018-03-19T17:12:31.429Z,1.60
2018-03-19T17:14:59.661Z,1.20
2018-03-19T17:17:27.118Z,1.20
2018-03-19T17:19:54.951Z,1.00
2018-03-19T17:22:22.400Z,1.00
2018-03-19T17:24:50.667Z,1.00
2018-03-19T17:27:18.933Z,1.40
2018-03-19T17:29:47.174Z,1.30
2018-03-19T17:32:14.634Z,1.20
2018-03-19T17:34:42.112Z,1.30
2018-03-19T17:37:09.585Z,1.40
2018-03-19T17:39:37.042Z,0.90
2018-03-19T17:42:05.281Z,0.80
2018-03-19T17:44:32.734Z,1.00
2018-03-19T17:47:00.206Z,0.70
2018-03-19T17:49:27.673Z,0.50
2018-03-19T17:51:55.950Z,0.50
2018-03-19T17:54:23.496Z,0.70
2018-03-19T17:56:53.062Z,0.40
2018-03-19T17:59:20.533Z,0.30
2018-03-19T18:01:48.007Z,-0.10
2018-03-19T18:04:15.473Z,0.10
2018-03-19T18:06:42.947Z,0.10
2018-03-19T18:09:10.422Z,-0.30
2018-03-19T18:11:38.654Z,-0.40
2018-03-19T18:14:06.130Z,-0.70
2018-03-19T18:16:33.617Z,-0.90
2018-03-19T18:19:01.861Z,-0.80
2018-03-19T18:21:29.332Z,-0.50
2018-03-19T18:23:56.805Z,-0.40
2018-03-19T18:26:24.288Z,-0.80
2018-03-19T18:28:51.758Z,-0.30
2018-03-19T18:31:19.260Z,-0.30
2018-03-19T18:33:46.734Z,-0.60
2018-03-19T18:36:14.201Z,-0.70
2018-03-19T18:38:42.445Z,-0.90
2018-03-19T18:41:09.921Z,-1.00
2018-03-19T18:43:37.410Z,-0.90
2018-03-19T18:46:04.873Z,-0.90
2018-03-19T18:48:32.349Z,-0.90
2018-03-19T18:50:59.814Z,-1.20
2018-03-19T18:53:27.309Z,-1.10
2018-03-19T18:55:54.781Z,-1.20
2018-03-19T18:58:23.039Z,-1.40
2018-03-19T19:00:50.534Z,-1.50
2018-03-19T19:03:18.024Z,-1.40
2018-03-19T19:05:45.510Z,-1.50
2018-03-19T19:08:12.992Z,-1.40
2018-03-19T19:10:40.480Z,-1.30
2018-03-19T19:13:07.952Z,-1.50
2018-03-19T19:15:35.786Z,-1.80
2018-03-19T19:18:04.043Z,-2.10
2018-03-19T19:20:31.529Z,-2.30
2018-03-19T19:22:58.993Z,-2.40
2018-03-19T19:25:26.492Z,-2.40
2018-03-19T19:27:53.958Z,-2.40
2018-03-19T19:30:21.483Z,-2.20
2018-03-19T19:32:48.950Z,-2.10
2018-03-19T19:35:16.441Z,-2.50
2018-03-19T19:37:43.948Z,-2.20
2018-03-19T19:40:11.432Z,-2.30
2018-03-19T19:42:38.946Z,-2.70
2018-03-19T19:45:07.191Z,-2.80
2018-03-19T19:47:34.671Z,-2.80
2018-03-19T19:50:02.920Z,-2.90
2018-03-19T19:52:30.394Z,-2.90
2018-03-19T19:54:57.903Z,-3.10
2018-03-19T19:57:25.377Z,-3.30
2018-03-19T19:59:52.849Z,-3.40
2018-03-19T20:02:20.317Z,-3.70
2018-03-19T20:04:47.797Z,-3.70
2018-03-19T20:07:16.043Z,-4.00
2018-03-19T20:09:43.518Z,-4.10
2018-03-19T20:12:10.990Z,-4.10
2018-03-19T20:14:39.229Z,-4.50
2018-03-19T20:17:06.726Z,-4.50
2018-03-19T20:19:35.005Z,-4.30
2018-03-19T20:22:03.242Z,-4.10
2018-03-19T20:24:31.499Z,-4.00
2018-03-19T20:26:58.988Z,-4.30
2018-03-19T20:29:26.491Z,-4.00
2018-03-19T20:31:53.954Z,-4.10
2018-03-19T20:34:21.436Z,-4.50
2018-03-19T20:36:48.928Z,-4.30
2018-03-19T20:39:16.397Z,-4.00
2018-03-19T20:41:44.658Z,-4.10
2018-03-19T20:44:12.138Z,-4.20
2018-03-19T20:46:40.399Z,-4.30
2018-03-19T20:49:07.928Z,-4.40
2018-03-19T20:51:35.418Z,-4.30
2018-03-19T20:54:02.887Z,-4.50
2018-03-19T20:56:31.124Z,-4.50
2018-03-19T20:58:58.606Z,-4.70
2018-03-19T21:01:26.081Z,-4.60
2018-03-19T21:03:54.319Z,-4.50
2018-03-19T21:06:21.808Z,-4.60
2018-03-19T21:08:50.046Z,-4.00
2018-03-19T21:11:17.527Z,-4.40
2018-03-19T21:13:44.995Z,-4.30
2018-03-19T21:16:13.254Z,-3.80
2018-03-19T21:18:40.731Z,-4.20
2018-03-19T21:21:08.212Z,-3.90
2018-03-19T21:23:35.682Z,-4.30
2018-03-19T21:26:03.165Z,-4.40
2018-03-19T21:28:30.631Z,-4.30
2018-03-19T21:30:58.169Z,-4.50
2018-03-19T21:33:25.640Z,-4.40
2018-03-19T21:35:53.122Z,-4.50
2018-03-19T21:38:20.590Z,-4.30
2018-03-19T21:40:48.085Z,-4.40
2018-03-19T21:43:15.561Z,-4.60
2018-03-19T21:45:43.045Z,-4.70
2018-03-19T21:48:10.511Z,-4.60
2018-03-19T21:50:37.991Z,-4.90
2018-03-19T21:53:06.224Z,-5.10
2018-03-19T21:55:33.701Z,-5.20
2018-03-19T21:58:01.183Z,-5.30
2018-03-19T22:00:29.443Z,-5.20
2018-03-19T22:02:56.905Z,-5.30
2018-03-19T22:05:24.391Z,-5.20
2018-03-19T22:07:51.904Z,-5.20
2018-03-19T22:10:19.385Z,-4.90
2018-03-19T22:12:46.856Z,-5.20
2018-03-19T22:15:15.108Z,-5.00
2018-03-19T22:17:42.584Z,-4.80
2018-03-19T22:20:10.051Z,-4.80
2018-03-19T22:22:38.282Z,-4.70
2018-03-19T22:25:05.762Z,-4.80
2018-03-19T22:27:33.232Z,-4.70
2018-03-19T22:30:01.494Z,-4.80
2018-03-19T22:32:28.975Z,-4.80
2018-03-19T22:34:57.214Z,-4.40
2018-03-19T22:37:24.677Z,-4.70
2018-03-19T22:39:52.155Z,-4.70
2018-03-19T22:42:19.626Z,-4.80
2018-03-19T22:44:47.861Z,-5.10
2018-03-19T22:47:15.328Z,-5.10
2018-03-19T22:49:42.818Z,-5.10
2018-03-19T22:52:10.312Z,-4.70
2018-03-19T22:54:37.786Z,-5.00
2018-03-19T22:57:05.255Z,-4.80
2018-03-19T22:59:32.727Z,-4.90
2018-03-19T23:02:00.204Z,-5.10
2018-03-19T23:04:40.307Z,-5.10
2018-03-19T23:07:08.152Z,-4.90
2018-03-19T23:09:35.616Z,-5.00
2018-03-19T23:12:03.091Z,-5.10
2018-03-19T23:14:30.557Z,-5.50
2018-03-19T23:16:58.031Z,-5.30
2018-03-19T23:19:25.492Z,-5.50
2018-03-19T23:21:52.970Z,-5.20
2018-03-19T23:24:21.197Z,-5.20
2018-03-19T23:26:48.671Z,-5.40
2018-03-19T23:29:16.141Z,-5.40
2018-03-19T23:31:43.620Z,-5.30
2018-03-19T23:34:11.849Z,-5.20
2018-03-19T23:36:39.327Z,-5.00
2018-03-19T23:39:06.825Z,-5.00
2018-03-19T23:41:34.302Z,-5.00
2018-03-19T23:44:01.773Z,-5.10
2018-03-19T23:46:29.252Z,-5.00
2018-03-19T23:48:56.714Z,-5.10
2018-03-19T23:51:24.194Z,-5.20
2018-03-19T23:53:52.426Z,-5.10
2018-03-19T23:56:19.909Z,-5.20
2018-03-19T23:58:47.375Z,-5.00
